sensor_id;sensor_type;location;lat;lon;timestamp;temperature;humidity
24814;DHT22;12904;50.088;11.414;2023-02-28T00:00:22;-1.70;99.90
24814;DHT22;12904;50.088;11.414;2023-02-28T00:02:48;-1.70;99.90
24814;DHT22;12904;50.088;11.414;2023-02-28T00:05:16;-1.70;99.90
24814;DHT22;12904;50.088;11.414;2023-02-28T00:07:42;-1.80;99.90
24814;DHT22;12904;50.088;11.414;2023-02-28T00:10:11;-1.80;99.90
24814;DHT22;12904;50.088;11.414;2023-02-28T00:12:37;-1.80;99.90
24814;DHT22;12904;50.088;11.414;2023-02-28T00:15:09;-1.90;99.90
24814;DHT22;12904;50.088;11.414;2023-02-28T00:17:34;-1.90;99.90
24814;DHT22;12904;50.088;11.414;2023-02-28T00:20:00;-1.90;99.90
24814;DHT22;12904;50.088;11.414;2023-02-28T00:22:30;-1.90;99.90
24814;DHT22;12904;50.088;11.414;2023-02-28T00:24:55;-1.80;99.90
24814;DHT22;12904;50.088;11.414;2023-02-28T00:27:21;-1.80;99.90
24814;DHT22;12904;50.088;11.414;2023-02-28T00:29:47;-1.80;99.90
24814;DHT22;12904;50.088;11.414;2023-02-28T00:32:13;-1.90;99.90
24814;DHT22;12904;50.088;11.414;2023-02-28T00:34:38;-1.90;99.90
24814;DHT22;12904;50.088;11.414;2023-02-28T00:37:09;-1.90;99.90
24814;DHT22;12904;50.088;11.414;2023-02-28T00:39:38;-1.90;99.90
24814;DHT22;12904;50.088;11.414;2023-02-28T00:42:04;-1.80;99.90
24814;DHT22;12904;50.088;11.414;2023-02-28T00:44:31;-1.80;99.90
24814;DHT22;12904;50.088;11.414;2023-02-28T00:46:57;-1.80;99.90
24814;DHT22;12904;50.088;11.414;2023-02-28T00:49:23;-1.80;99.90
24814;DHT22;12904;50.088;11.414;2023-02-28T00:51:49;-1.90;99.90
24814;DHT22;12904;50.088;11.414;2023-02-28T00:54:16;-1.90;99.90
24814;DHT22;12904;50.088;11.414;2023-02-28T00:56:41;-1.90;99.90
24814;DHT22;12904;50.088;11.414;2023-02-28T00:59:07;-1.90;99.90
24814;DHT22;12904;50.088;11.414;2023-02-28T01:01:33;-1.90;99.90
24814;DHT22;12904;50.088;11.414;2023-02-28T01:03:58;-1.90;99.90
24814;DHT22;12904;50.088;11.414;2023-02-28T01:06:24;-2.00;99.90
24814;DHT22;12904;50.088;11.414;2023-02-28T01:08:50;-2.00;99.90
24814;DHT22;12904;50.088;11.414;2023-02-28T01:11:19;-2.00;99.90
24814;DHT22;12904;50.088;11.414;2023-02-28T01:13:45;-2.00;99.90
24814;DHT22;12904;50.088;11.414;2023-02-28T01:16:12;-2.00;99.90
24814;DHT22;12904;50.088;11.414;2023-02-28T01:18:38;-2.00;99.90
24814;DHT22;12904;50.088;11.414;2023-02-28T01:21:05;-2.00;99.90
24814;DHT22;12904;50.088;11.414;2023-02-28T01:23:31;-2.00;99.90
24814;DHT22;12904;50.088;11.414;2023-02-28T01:26:11;-2.10;99.90
24814;DHT22;12904;50.088;11.414;2023-02-28T01:28:37;-2.10;99.90
24814;DHT22;12904;50.088;11.414;2023-02-28T01:31:03;-2.10;99.90
24814;DHT22;12904;50.088;11.414;2023-02-28T01:33:29;-2.00;99.90
24814;DHT22;12904;50.088;11.414;2023-02-28T01:35:58;-2.00;99.90
24814;DHT22;12904;50.088;11.414;2023-02-28T01:38:24;-1.90;99.90
24814;DHT22;12904;50.088;11.414;2023-02-28T01:40:50;-1.90;99.90
24814;DHT22;12904;50.088;11.414;2023-02-28T01:46:08;-1.90;99.90
24814;DHT22;12904;50.088;11.414;2023-02-28T01:48:41;-1.90;99.90
24814;DHT22;12904;50.088;11.414;2023-02-28T01:51:15;-1.90;99.90
24814;DHT22;12904;50.088;11.414;2023-02-28T01:53:47;-1.90;99.90
24814;DHT22;12904;50.088;11.414;2023-02-28T01:56:17;-1.90;99.90
24814;DHT22;12904;50.088;11.414;2023-02-28T01:58:50;-1.90;99.90
24814;DHT22;12904;50.088;11.414;2023-02-28T02:01:16;-2.00;99.90
24814;DHT22;12904;50.088;11.414;2023-02-28T02:04:01;-1.90;99.90
24814;DHT22;12904;50.088;11.414;2023-02-28T02:06:39;-1.90;99.90
24814;DHT22;12904;50.088;11.414;2023-02-28T02:09:05;-1.90;99.90
24814;DHT22;12904;50.088;11.414;2023-02-28T02:11:32;-1.90;99.90
24814;DHT22;12904;50.088;11.414;2023-02-28T02:19:11;-1.90;99.90
24814;DHT22;12904;50.088;11.414;2023-02-28T02:35:56;-2.00;99.90
24814;DHT22;12904;50.088;11.414;2023-02-28T02:38:50;-2.00;99.90
24814;DHT22;12904;50.088;11.414;2023-02-28T02:44:21;-2.10;99.90
24814;DHT22;12904;50.088;11.414;2023-02-28T02:46:48;-2.10;99.90
24814;DHT22;12904;50.088;11.414;2023-02-28T02:49:35;-2.10;99.90
24814;DHT22;12904;50.088;11.414;2023-02-28T02:52:04;-2.10;99.90
24814;DHT22;12904;50.088;11.414;2023-02-28T02:54:35;-2.10;99.90
24814;DHT22;12904;50.088;11.414;2023-02-28T02:57:06;-2.10;99.90
24814;DHT22;12904;50.088;11.414;2023-02-28T02:59:36;-2.10;99.90
24814;DHT22;12904;50.088;11.414;2023-02-28T03:02:06;-2.20;99.90
24814;DHT22;12904;50.088;11.414;2023-02-28T03:04:40;-2.20;99.90
24814;DHT22;12904;50.088;11.414;2023-02-28T03:07:07;-2.10;99.90
24814;DHT22;12904;50.088;11.414;2023-02-28T03:09:34;-2.10;99.90
24814;DHT22;12904;50.088;11.414;2023-02-28T03:12:02;-2.10;99.90
24814;DHT22;12904;50.088;11.414;2023-02-28T03:14:43;-2.20;99.90
24814;DHT22;12904;50.088;11.414;2023-02-28T03:20:24;-2.20;99.90
24814;DHT22;12904;50.088;11.414;2023-02-28T03:26:41;-2.20;99.90
24814;DHT22;12904;50.088;11.414;2023-02-28T03:29:23;-2.20;99.90
24814;DHT22;12904;50.088;11.414;2023-02-28T03:31:57;-2.10;99.90
24814;DHT22;12904;50.088;11.414;2023-02-28T03:34:36;-2.20;99.90
24814;DHT22;12904;50.088;11.414;2023-02-28T03:37:16;-2.20;99.90
24814;DHT22;12904;50.088;11.414;2023-02-28T03:39:47;-2.20;99.90
24814;DHT22;12904;50.088;11.414;2023-02-28T03:42:15;-2.10;99.90
24814;DHT22;12904;50.088;11.414;2023-02-28T03:44:57;-2.10;99.90
24814;DHT22;12904;50.088;11.414;2023-02-28T03:47:37;-2.10;99.90
24814;DHT22;12904;50.088;11.414;2023-02-28T03:50:20;-2.10;99.90
24814;DHT22;12904;50.088;11.414;2023-02-28T03:53:01;-2.20;99.90
24814;DHT22;12904;50.088;11.414;2023-02-28T03:55:34;-2.20;99.90
24814;DHT22;12904;50.088;11.414;2023-02-28T04:00:50;-2.20;99.90
24814;DHT22;12904;50.088;11.414;2023-02-28T04:03:18;-2.20;99.90
24814;DHT22;12904;50.088;11.414;2023-02-28T04:05:50;-2.20;99.90
24814;DHT22;12904;50.088;11.414;2023-02-28T04:08:17;-2.20;99.90
24814;DHT22;12904;50.088;11.414;2023-02-28T04:10:46;-2.30;99.90
24814;DHT22;12904;50.088;11.414;2023-02-28T04:13:13;-2.30;99.90
24814;DHT22;12904;50.088;11.414;2023-02-28T04:15:39;-2.30;99.90
24814;DHT22;12904;50.088;11.414;2023-02-28T04:18:04;-2.30;99.90
24814;DHT22;12904;50.088;11.414;2023-02-28T04:20:31;-2.30;99.90
24814;DHT22;12904;50.088;11.414;2023-02-28T04:22:56;-2.40;99.90
24814;DHT22;12904;50.088;11.414;2023-02-28T04:25:22;-2.40;99.90
24814;DHT22;12904;50.088;11.414;2023-02-28T04:27:47;-2.40;99.90
24814;DHT22;12904;50.088;11.414;2023-02-28T04:30:13;-2.30;99.90
24814;DHT22;12904;50.088;11.414;2023-02-28T04:32:39;-2.30;99.90
24814;DHT22;12904;50.088;11.414;2023-02-28T04:35:05;-2.40;99.90
24814;DHT22;12904;50.088;11.414;2023-02-28T04:37:30;-2.30;99.90
24814;DHT22;12904;50.088;11.414;2023-02-28T04:40:01;-2.30;99.90
24814;DHT22;12904;50.088;11.414;2023-02-28T04:42:26;-2.40;99.90
24814;DHT22;12904;50.088;11.414;2023-02-28T04:44:52;-2.40;99.90
24814;DHT22;12904;50.088;11.414;2023-02-28T04:47:18;-2.40;99.90
24814;DHT22;12904;50.088;11.414;2023-02-28T04:49:43;-2.40;99.90
24814;DHT22;12904;50.088;11.414;2023-02-28T04:52:09;-2.40;99.90
24814;DHT22;12904;50.088;11.414;2023-02-28T04:54:35;-2.30;99.90
24814;DHT22;12904;50.088;11.414;2023-02-28T04:57:03;-2.30;99.90
24814;DHT22;12904;50.088;11.414;2023-02-28T04:59:29;-2.30;99.90
24814;DHT22;12904;50.088;11.414;2023-02-28T05:01:55;-2.40;99.90
24814;DHT22;12904;50.088;11.414;2023-02-28T05:04:20;-2.40;99.90
24814;DHT22;12904;50.088;11.414;2023-02-28T05:06:46;-2.40;99.90
24814;DHT22;12904;50.088;11.414;2023-02-28T05:09:12;-2.40;99.90
24814;DHT22;12904;50.088;11.414;2023-02-28T05:11:38;-2.40;99.90
24814;DHT22;12904;50.088;11.414;2023-02-28T05:14:06;-2.40;99.90
24814;DHT22;12904;50.088;11.414;2023-02-28T05:16:33;-2.30;99.90
24814;DHT22;12904;50.088;11.414;2023-02-28T05:18:58;-2.40;99.90
24814;DHT22;12904;50.088;11.414;2023-02-28T05:23:50;-2.30;99.90
24814;DHT22;12904;50.088;11.414;2023-02-28T05:26:15;-2.30;99.90
24814;DHT22;12904;50.088;11.414;2023-02-28T05:28:41;-2.30;99.90
24814;DHT22;12904;50.088;11.414;2023-02-28T05:31:10;-2.40;99.90
24814;DHT22;12904;50.088;11.414;2023-02-28T05:33:36;-2.40;99.90
24814;DHT22;12904;50.088;11.414;2023-02-28T05:36:02;-2.40;99.90
24814;DHT22;12904;50.088;11.414;2023-02-28T05:38:27;-2.40;99.90
24814;DHT22;12904;50.088;11.414;2023-02-28T05:40:53;-2.40;99.90
24814;DHT22;12904;50.088;11.414;2023-02-28T05:43:18;-2.40;99.90
24814;DHT22;12904;50.088;11.414;2023-02-28T05:45:44;-2.40;99.90
24814;DHT22;12904;50.088;11.414;2023-02-28T05:48:10;-2.40;99.90
24814;DHT22;12904;50.088;11.414;2023-02-28T05:50:35;-2.40;99.90
24814;DHT22;12904;50.088;11.414;2023-02-28T05:53:01;-2.30;99.90
24814;DHT22;12904;50.088;11.414;2023-02-28T05:55:27;-2.30;99.90
24814;DHT22;12904;50.088;11.414;2023-02-28T05:57:53;-2.30;99.90
24814;DHT22;12904;50.088;11.414;2023-02-28T06:00:19;-2.40;99.90
24814;DHT22;12904;50.088;11.414;2023-02-28T06:02:45;-2.40;99.90
24814;DHT22;12904;50.088;11.414;2023-02-28T06:05:15;-2.40;99.90
24814;DHT22;12904;50.088;11.414;2023-02-28T06:07:41;-2.40;99.90
24814;DHT22;12904;50.088;11.414;2023-02-28T06:10:07;-2.30;99.90
24814;DHT22;12904;50.088;11.414;2023-02-28T06:12:33;-2.30;99.90
24814;DHT22;12904;50.088;11.414;2023-02-28T06:14:59;-2.30;99.90
24814;DHT22;12904;50.088;11.414;2023-02-28T06:17:24;-2.30;99.90
24814;DHT22;12904;50.088;11.414;2023-02-28T06:19:50;-2.30;99.90
24814;DHT22;12904;50.088;11.414;2023-02-28T06:22:15;-2.20;99.90
24814;DHT22;12904;50.088;11.414;2023-02-28T06:24:41;-2.10;99.90
24814;DHT22;12904;50.088;11.414;2023-02-28T06:27:07;-2.10;99.90
24814;DHT22;12904;50.088;11.414;2023-02-28T06:29:33;-2.10;99.90
24814;DHT22;12904;50.088;11.414;2023-02-28T06:31:59;-2.00;99.90
24814;DHT22;12904;50.088;11.414;2023-02-28T06:34:24;-1.90;99.90
24814;DHT22;12904;50.088;11.414;2023-02-28T06:36:51;-1.80;99.90
24814;DHT22;12904;50.088;11.414;2023-02-28T06:39:17;-1.80;99.90
24814;DHT22;12904;50.088;11.414;2023-02-28T06:41:43;-1.70;99.90
24814;DHT22;12904;50.088;11.414;2023-02-28T06:44:15;-1.60;99.90
24814;DHT22;12904;50.088;11.414;2023-02-28T06:46:43;-1.50;99.90
24814;DHT22;12904;50.088;11.414;2023-02-28T06:49:10;-1.50;99.90
24814;DHT22;12904;50.088;11.414;2023-02-28T06:51:36;-1.40;99.90
24814;DHT22;12904;50.088;11.414;2023-02-28T06:54:03;-1.40;99.90
24814;DHT22;12904;50.088;11.414;2023-02-28T06:56:29;-1.30;99.90
24814;DHT22;12904;50.088;11.414;2023-02-28T06:58:54;-1.20;99.90
24814;DHT22;12904;50.088;11.414;2023-02-28T07:01:20;-1.20;99.90
24814;DHT22;12904;50.088;11.414;2023-02-28T07:03:48;-1.10;99.90
24814;DHT22;12904;50.088;11.414;2023-02-28T07:06:18;-1.10;99.90
24814;DHT22;12904;50.088;11.414;2023-02-28T07:08:44;-1.00;99.90
24814;DHT22;12904;50.088;11.414;2023-02-28T07:11:10;-0.90;99.90
24814;DHT22;12904;50.088;11.414;2023-02-28T07:13:36;-0.90;99.90
24814;DHT22;12904;50.088;11.414;2023-02-28T07:16:07;-0.80;99.90
24814;DHT22;12904;50.088;11.414;2023-02-28T07:18:35;-0.70;99.90
24814;DHT22;12904;50.088;11.414;2023-02-28T07:21:08;-0.60;99.90
24814;DHT22;12904;50.088;11.414;2023-02-28T07:23:35;-0.60;99.90
24814;DHT22;12904;50.088;11.414;2023-02-28T07:26:01;-0.50;99.90
24814;DHT22;12904;50.088;11.414;2023-02-28T07:28:27;-0.40;99.90
24814;DHT22;12904;50.088;11.414;2023-02-28T07:30:52;-0.30;99.90
24814;DHT22;12904;50.088;11.414;2023-02-28T07:33:18;-0.30;99.90
24814;DHT22;12904;50.088;11.414;2023-02-28T07:35:44;-0.20;99.90
24814;DHT22;12904;50.088;11.414;2023-02-28T07:38:10;-0.10;99.90
24814;DHT22;12904;50.088;11.414;2023-02-28T07:40:36;0.00;99.90
24814;DHT22;12904;50.088;11.414;2023-02-28T07:43:03;0.10;99.90
24814;DHT22;12904;50.088;11.414;2023-02-28T07:45:29;0.20;99.90
24814;DHT22;12904;50.088;11.414;2023-02-28T07:47:55;0.30;99.90
24814;DHT22;12904;50.088;11.414;2023-02-28T07:50:21;0.40;99.90
24814;DHT22;12904;50.088;11.414;2023-02-28T07:52:47;0.50;99.90
24814;DHT22;12904;50.088;11.414;2023-02-28T07:55:13;0.60;99.90
24814;DHT22;12904;50.088;11.414;2023-02-28T07:57:40;0.60;99.90
24814;DHT22;12904;50.088;11.414;2023-02-28T08:00:08;0.60;99.90
24814;DHT22;12904;50.088;11.414;2023-02-28T08:02:35;0.70;99.90
24814;DHT22;12904;50.088;11.414;2023-02-28T08:05:01;0.70;99.90
24814;DHT22;12904;50.088;11.414;2023-02-28T08:07:27;0.70;99.90
24814;DHT22;12904;50.088;11.414;2023-02-28T08:09:53;0.80;99.90
24814;DHT22;12904;50.088;11.414;2023-02-28T08:12:18;0.80;99.90
24814;DHT22;12904;50.088;11.414;2023-02-28T08:14:44;0.70;99.90
24814;DHT22;12904;50.088;11.414;2023-02-28T08:17:10;0.80;99.90
24814;DHT22;12904;50.088;11.414;2023-02-28T08:19:36;0.90;99.90
24814;DHT22;12904;50.088;11.414;2023-02-28T08:22:02;1.00;99.90
24814;DHT22;12904;50.088;11.414;2023-02-28T08:24:27;1.10;99.90
24814;DHT22;12904;50.088;11.414;2023-02-28T08:26:53;1.20;98.30
24814;DHT22;12904;50.088;11.414;2023-02-28T08:29:19;1.20;98.10
24814;DHT22;12904;50.088;11.414;2023-02-28T08:31:44;1.30;97.30
24814;DHT22;12904;50.088;11.414;2023-02-28T08:34:12;1.30;96.80
24814;DHT22;12904;50.088;11.414;2023-02-28T08:36:39;1.30;96.50
24814;DHT22;12904;50.088;11.414;2023-02-28T08:39:05;1.30;96.40
24814;DHT22;12904;50.088;11.414;2023-02-28T08:41:31;1.30;95.40
24814;DHT22;12904;50.088;11.414;2023-02-28T08:43:57;1.30;95.20
24814;DHT22;12904;50.088;11.414;2023-02-28T08:46:24;1.30;95.60
24814;DHT22;12904;50.088;11.414;2023-02-28T08:48:56;1.30;94.80
24814;DHT22;12904;50.088;11.414;2023-02-28T08:51:25;1.30;94.80
24814;DHT22;12904;50.088;11.414;2023-02-28T08:53:57;1.30;95.00
24814;DHT22;12904;50.088;11.414;2023-02-28T08:56:23;1.40;95.50
24814;DHT22;12904;50.088;11.414;2023-02-28T08:58:49;1.40;95.00
24814;DHT22;12904;50.088;11.414;2023-02-28T09:01:21;1.50;95.10
24814;DHT22;12904;50.088;11.414;2023-02-28T09:03:48;1.60;95.60
24814;DHT22;12904;50.088;11.414;2023-02-28T09:06:15;1.70;94.50
24814;DHT22;12904;50.088;11.414;2023-02-28T09:08:41;1.70;94.40
24814;DHT22;12904;50.088;11.414;2023-02-28T09:11:08;1.80;94.10
24814;DHT22;12904;50.088;11.414;2023-02-28T09:13:34;1.90;94.10
24814;DHT22;12904;50.088;11.414;2023-02-28T09:16:01;2.00;93.90
24814;DHT22;12904;50.088;11.414;2023-02-28T09:18:27;2.00;93.20
24814;DHT22;12904;50.088;11.414;2023-02-28T09:20:53;2.20;92.90
24814;DHT22;12904;50.088;11.414;2023-02-28T09:23:19;2.30;92.70
24814;DHT22;12904;50.088;11.414;2023-02-28T09:25:47;2.60;92.40
24814;DHT22;12904;50.088;11.414;2023-02-28T09:28:13;3.40;90.90
24814;DHT22;12904;50.088;11.414;2023-02-28T09:30:41;4.50;87.20
24814;DHT22;12904;50.088;11.414;2023-02-28T09:33:07;5.30;81.50
24814;DHT22;12904;50.088;11.414;2023-02-28T09:35:33;6.20;77.70
24814;DHT22;12904;50.088;11.414;2023-02-28T09:37:59;6.90;72.60
24814;DHT22;12904;50.088;11.414;2023-02-28T09:40:25;7.10;67.80
24814;DHT22;12904;50.088;11.414;2023-02-28T09:42:53;6.60;69.80
24814;DHT22;12904;50.088;11.414;2023-02-28T09:47:54;7.00;68.90
24814;DHT22;12904;50.088;11.414;2023-02-28T09:51:05;7.40;66.70
24814;DHT22;12904;50.088;11.414;2023-02-28T09:53:33;8.20;65.70
24814;DHT22;12904;50.088;11.414;2023-02-28T09:56:09;8.70;64.10
24814;DHT22;12904;50.088;11.414;2023-02-28T09:58:45;8.90;63.40
24814;DHT22;12904;50.088;11.414;2023-02-28T10:01:33;8.90;62.50
24814;DHT22;12904;50.088;11.414;2023-02-28T10:06:41;7.90;62.80
24814;DHT22;12904;50.088;11.414;2023-02-28T10:09:13;7.10;62.80
24814;DHT22;12904;50.088;11.414;2023-02-28T10:11:41;6.30;65.70
24814;DHT22;12904;50.088;11.414;2023-02-28T10:14:18;5.80;67.90
24814;DHT22;12904;50.088;11.414;2023-02-28T10:16:50;5.70;70.90
24814;DHT22;12904;50.088;11.414;2023-02-28T10:19:47;5.60;69.20
24814;DHT22;12904;50.088;11.414;2023-02-28T10:22:22;5.30;69.40
24814;DHT22;12904;50.088;11.414;2023-02-28T10:24:54;4.90;71.30
24814;DHT22;12904;50.088;11.414;2023-02-28T10:27:31;5.20;71.40
24814;DHT22;12904;50.088;11.414;2023-02-28T10:29:59;5.20;71.20
24814;DHT22;12904;50.088;11.414;2023-02-28T10:32:31;5.00;71.00
24814;DHT22;12904;50.088;11.414;2023-02-28T10:37:32;4.50;73.00
24814;DHT22;12904;50.088;11.414;2023-02-28T10:40:04;4.40;74.20
24814;DHT22;12904;50.088;11.414;2023-02-28T10:42:31;4.40;73.60
24814;DHT22;12904;50.088;11.414;2023-02-28T10:45:16;4.70;75.60
24814;DHT22;12904;50.088;11.414;2023-02-28T10:47:57;4.90;74.60
24814;DHT22;12904;50.088;11.414;2023-02-28T10:50:26;5.00;73.00
24814;DHT22;12904;50.088;11.414;2023-02-28T10:52:53;5.30;73.30
24814;DHT22;12904;50.088;11.414;2023-02-28T10:55:25;5.60;71.90
24814;DHT22;12904;50.088;11.414;2023-02-28T10:57:51;5.80;69.50
24814;DHT22;12904;50.088;11.414;2023-02-28T11:00:25;5.90;68.60
24814;DHT22;12904;50.088;11.414;2023-02-28T11:02:56;6.20;69.30
24814;DHT22;12904;50.088;11.414;2023-02-28T11:05:33;6.40;68.40
24814;DHT22;12904;50.088;11.414;2023-02-28T11:10:31;7.10;67.10
24814;DHT22;12904;50.088;11.414;2023-02-28T11:13:00;7.40;63.80
24814;DHT22;12904;50.088;11.414;2023-02-28T11:15:28;7.60;65.50
24814;DHT22;12904;50.088;11.414;2023-02-28T11:18:00;8.00;65.50
24814;DHT22;12904;50.088;11.414;2023-02-28T11:20:28;8.20;64.20
24814;DHT22;12904;50.088;11.414;2023-02-28T11:22:57;8.20;63.00
24814;DHT22;12904;50.088;11.414;2023-02-28T11:25:36;8.10;61.00
24814;DHT22;12904;50.088;11.414;2023-02-28T11:28:05;7.90;62.00
24814;DHT22;12904;50.088;11.414;2023-02-28T11:35:50;7.80;61.00
24814;DHT22;12904;50.088;11.414;2023-02-28T11:38:16;7.40;62.50
24814;DHT22;12904;50.088;11.414;2023-02-28T11:46:15;7.30;68.70
24814;DHT22;12904;50.088;11.414;2023-02-28T11:54:32;7.70;65.60
24814;DHT22;12904;50.088;11.414;2023-02-28T11:57:31;7.80;65.50
24814;DHT22;12904;50.088;11.414;2023-02-28T12:11:51;7.80;63.50
24814;DHT22;12904;50.088;11.414;2023-02-28T12:21:37;7.90;63.70
24814;DHT22;12904;50.088;11.414;2023-02-28T12:27:11;8.10;64.60
24814;DHT22;12904;50.088;11.414;2023-02-28T12:30:03;8.30;62.40
24814;DHT22;12904;50.088;11.414;2023-02-28T12:32:37;8.20;64.50
24814;DHT22;12904;50.088;11.414;2023-02-28T12:35:06;8.20;62.80
24814;DHT22;12904;50.088;11.414;2023-02-28T12:37:47;8.20;61.70
24814;DHT22;12904;50.088;11.414;2023-02-28T12:40:21;8.20;63.20
24814;DHT22;12904;50.088;11.414;2023-02-28T12:42:55;8.20;63.20
24814;DHT22;12904;50.088;11.414;2023-02-28T12:45:27;8.30;63.00
24814;DHT22;12904;50.088;11.414;2023-02-28T12:48:00;8.20;61.50
24814;DHT22;12904;50.088;11.414;2023-02-28T12:50:28;8.20;62.10
24814;DHT22;12904;50.088;11.414;2023-02-28T12:58:38;8.40;62.10
24814;DHT22;12904;50.088;11.414;2023-02-28T13:06:22;7.90;59.70
24814;DHT22;12904;50.088;11.414;2023-02-28T13:09:16;7.50;61.00
24814;DHT22;12904;50.088;11.414;2023-02-28T13:11:46;7.40;62.60
24814;DHT22;12904;50.088;11.414;2023-02-28T13:14:26;7.40;64.20
24814;DHT22;12904;50.088;11.414;2023-02-28T13:19:46;7.90;63.60
24814;DHT22;12904;50.088;11.414;2023-02-28T13:27:50;8.00;62.70
24814;DHT22;12904;50.088;11.414;2023-02-28T13:33:37;8.10;62.30
24814;DHT22;12904;50.088;11.414;2023-02-28T13:36:30;8.10;60.80
24814;DHT22;12904;50.088;11.414;2023-02-28T13:39:01;8.10;61.70
24814;DHT22;12904;50.088;11.414;2023-02-28T13:44:22;8.30;61.90
24814;DHT22;12904;50.088;11.414;2023-02-28T14:00:17;7.90;61.40
24814;DHT22;12904;50.088;11.414;2023-02-28T14:03:18;7.90;62.70
24814;DHT22;12904;50.088;11.414;2023-02-28T14:08:53;7.70;63.80
24814;DHT22;12904;50.088;11.414;2023-02-28T14:11:45;7.70;60.90
24814;DHT22;12904;50.088;11.414;2023-02-28T14:17:06;7.10;62.50
24814;DHT22;12904;50.088;11.414;2023-02-28T14:19:36;7.10;63.90
24814;DHT22;12904;50.088;11.414;2023-02-28T14:22:17;7.10;65.70
24814;DHT22;12904;50.088;11.414;2023-02-28T14:25:08;7.30;63.60
24814;DHT22;12904;50.088;11.414;2023-02-28T14:38:50;7.80;60.50
24814;DHT22;12904;50.088;11.414;2023-02-28T14:41:39;8.10;62.40
24814;DHT22;12904;50.088;11.414;2023-02-28T14:44:26;8.40;60.40
24814;DHT22;12904;50.088;11.414;2023-02-28T14:46:55;8.60;60.00
24814;DHT22;12904;50.088;11.414;2023-02-28T14:49:35;8.90;59.60
24814;DHT22;12904;50.088;11.414;2023-02-28T14:52:23;9.10;60.00
24814;DHT22;12904;50.088;11.414;2023-02-28T14:57:38;9.40;58.70
24814;DHT22;12904;50.088;11.414;2023-02-28T15:02:35;9.60;58.20
24814;DHT22;12904;50.088;11.414;2023-02-28T15:07:44;9.50;58.00
24814;DHT22;12904;50.088;11.414;2023-02-28T15:12:36;9.50;57.20
24814;DHT22;12904;50.088;11.414;2023-02-28T15:15:03;9.20;57.80
24814;DHT22;12904;50.088;11.414;2023-02-28T15:17:29;8.90;58.40
24814;DHT22;12904;50.088;11.414;2023-02-28T15:19:55;8.80;59.00
24814;DHT22;12904;50.088;11.414;2023-02-28T15:22:29;8.70;60.30
24814;DHT22;12904;50.088;11.414;2023-02-28T15:24:57;8.60;59.60
24814;DHT22;12904;50.088;11.414;2023-02-28T15:27:31;8.60;59.80
24814;DHT22;12904;50.088;11.414;2023-02-28T15:30:11;8.30;59.30
24814;DHT22;12904;50.088;11.414;2023-02-28T15:32:40;8.20;59.50
24814;DHT22;12904;50.088;11.414;2023-02-28T15:38:24;7.90;61.40
24814;DHT22;12904;50.088;11.414;2023-02-28T15:40:57;7.90;61.40
24814;DHT22;12904;50.088;11.414;2023-02-28T15:43:29;7.90;62.30
24814;DHT22;12904;50.088;11.414;2023-02-28T15:46:04;7.80;61.60
24814;DHT22;12904;50.088;11.414;2023-02-28T15:48:37;7.80;61.30
24814;DHT22;12904;50.088;11.414;2023-02-28T15:51:14;7.60;61.50
24814;DHT22;12904;50.088;11.414;2023-02-28T15:58:48;7.00;63.80
24814;DHT22;12904;50.088;11.414;2023-02-28T16:01:26;6.90;64.20
24814;DHT22;12904;50.088;11.414;2023-02-28T16:03:56;6.80;64.70
24814;DHT22;12904;50.088;11.414;2023-02-28T16:06:39;6.70;63.80
24814;DHT22;12904;50.088;11.414;2023-02-28T16:09:10;6.50;64.80
24814;DHT22;12904;50.088;11.414;2023-02-28T16:11:39;6.30;66.20
24814;DHT22;12904;50.088;11.414;2023-02-28T16:14:08;6.20;66.70
24814;DHT22;12904;50.088;11.414;2023-02-28T16:16:42;6.00;65.20
24814;DHT22;12904;50.088;11.414;2023-02-28T16:19:08;5.90;67.30
24814;DHT22;12904;50.088;11.414;2023-02-28T16:21:34;5.80;68.10
24814;DHT22;12904;50.088;11.414;2023-02-28T16:23:59;5.70;68.50
24814;DHT22;12904;50.088;11.414;2023-02-28T16:26:25;5.50;68.30
24814;DHT22;12904;50.088;11.414;2023-02-28T16:28:53;5.40;69.60
24814;DHT22;12904;50.088;11.414;2023-02-28T16:31:19;5.20;69.30
24814;DHT22;12904;50.088;11.414;2023-02-28T16:33:45;5.10;70.30
24814;DHT22;12904;50.088;11.414;2023-02-28T16:36:19;4.90;71.00
24814;DHT22;12904;50.088;11.414;2023-02-28T16:38:45;4.60;72.80
24814;DHT22;12904;50.088;11.414;2023-02-28T16:41:25;4.40;73.90
24814;DHT22;12904;50.088;11.414;2023-02-28T16:43:54;4.10;76.00
24814;DHT22;12904;50.088;11.414;2023-02-28T16:46:25;3.80;76.60
24814;DHT22;12904;50.088;11.414;2023-02-28T16:48:52;3.60;78.20
24814;DHT22;12904;50.088;11.414;2023-02-28T16:51:18;3.40;78.70
24814;DHT22;12904;50.088;11.414;2023-02-28T16:53:44;3.30;80.50
24814;DHT22;12904;50.088;11.414;2023-02-28T16:56:18;3.10;81.40
24814;DHT22;12904;50.088;11.414;2023-02-28T16:58:44;2.90;81.70
24814;DHT22;12904;50.088;11.414;2023-02-28T17:01:10;2.90;82.40
24814;DHT22;12904;50.088;11.414;2023-02-28T17:03:36;2.80;82.70
24814;DHT22;12904;50.088;11.414;2023-02-28T17:06:03;2.70;83.10
24814;DHT22;12904;50.088;11.414;2023-02-28T17:08:30;2.60;83.70
24814;DHT22;12904;50.088;11.414;2023-02-28T17:10:57;2.50;84.80
24814;DHT22;12904;50.088;11.414;2023-02-28T17:13:23;2.50;84.80
24814;DHT22;12904;50.088;11.414;2023-02-28T17:15:49;2.40;85.70
24814;DHT22;12904;50.088;11.414;2023-02-28T17:18:17;2.20;86.10
24814;DHT22;12904;50.088;11.414;2023-02-28T17:20:47;2.20;86.80
24814;DHT22;12904;50.088;11.414;2023-02-28T17:23:12;2.10;86.10
24814;DHT22;12904;50.088;11.414;2023-02-28T17:25:38;2.10;87.40
24814;DHT22;12904;50.088;11.414;2023-02-28T17:28:04;2.00;87.60
24814;DHT22;12904;50.088;11.414;2023-02-28T17:30:33;1.90;88.50
24814;DHT22;12904;50.088;11.414;2023-02-28T17:32:58;1.80;89.60
24814;DHT22;12904;50.088;11.414;2023-02-28T17:35:24;1.70;90.10
24814;DHT22;12904;50.088;11.414;2023-02-28T17:37:52;1.70;90.40
24814;DHT22;12904;50.088;11.414;2023-02-28T17:40:19;1.60;89.70
24814;DHT22;12904;50.088;11.414;2023-02-28T17:42:46;1.60;90.00
24814;DHT22;12904;50.088;11.414;2023-02-28T17:45:13;1.70;90.00
24814;DHT22;12904;50.088;11.414;2023-02-28T17:47:46;1.60;90.20
24814;DHT22;12904;50.088;11.414;2023-02-28T17:50:15;1.60;90.40
24814;DHT22;12904;50.088;11.414;2023-02-28T17:52:41;1.60;90.60
24814;DHT22;12904;50.088;11.414;2023-02-28T17:55:07;1.50;90.50
24814;DHT22;12904;50.088;11.414;2023-02-28T17:57:32;1.50;90.60
24814;DHT22;12904;50.088;11.414;2023-02-28T17:59:58;1.50;90.40
24814;DHT22;12904;50.088;11.414;2023-02-28T18:02:24;1.50;90.80
24814;DHT22;12904;50.088;11.414;2023-02-28T18:04:49;1.50;90.80
24814;DHT22;12904;50.088;11.414;2023-02-28T18:07:15;1.40;91.10
24814;DHT22;12904;50.088;11.414;2023-02-28T18:09:40;1.40;91.00
24814;DHT22;12904;50.088;11.414;2023-02-28T18:12:06;1.40;91.20
24814;DHT22;12904;50.088;11.414;2023-02-28T18:14:32;1.30;91.50
24814;DHT22;12904;50.088;11.414;2023-02-28T18:16:58;1.20;91.80
24814;DHT22;12904;50.088;11.414;2023-02-28T18:19:24;1.20;92.20